createdAt,value
2023-01-30T00:01:19.734Z,15.57
2023-01-30T00:03:48.954Z,16.67
2023-01-30T00:06:17.326Z,15.23
2023-01-30T00:08:45.442Z,16.95
2023-01-30T00:11:14.801Z,16.23
2023-01-30T00:13:43.891Z,16.08
2023-01-30T00:16:11.915Z,17.25
2023-01-30T00:18:41.550Z,18.92
2023-01-30T00:21:13.054Z,18.15
2023-01-30T00:23:41.027Z,16.92
2023-01-30T00:26:09.428Z,16.95
2023-01-30T00:28:37.691Z,16.77
2023-01-30T00:31:05.640Z,16.67
2023-01-30T00:33:33.637Z,17.80
2023-01-30T00:36:03.074Z,17.20
2023-01-30T00:38:32.237Z,17.33
2023-01-30T00:41:00.100Z,18.30
2023-01-30T00:43:46.092Z,18.15
2023-01-30T00:46:37.810Z,18.02
2023-01-30T00:49:05.659Z,18.17
2023-01-30T00:51:33.527Z,16.42
2023-01-30T00:54:02.785Z,19.30
2023-01-30T00:56:30.630Z,17.65
2023-01-30T00:58:58.504Z,17.10
2023-01-30T01:01:26.454Z,18.02
2023-01-30T01:03:54.371Z,16.38
2023-01-30T01:06:22.229Z,15.32
2023-01-30T01:08:50.580Z,16.20
2023-01-30T01:11:25.306Z,17.65
2023-01-30T01:13:54.625Z,19.60
2023-01-30T01:16:23.652Z,17.08
2023-01-30T01:18:53.717Z,16.80
2023-01-30T01:21:22.669Z,17.20
2023-01-30T01:23:52.409Z,16.70
2023-01-30T01:26:22.236Z,17.10
2023-01-30T01:28:50.400Z,17.35
2023-01-30T01:31:18.512Z,16.38
2023-01-30T01:33:46.550Z,17.55
2023-01-30T01:36:29.383Z,17.15
2023-01-30T01:39:03.409Z,17.50
2023-01-30T01:41:31.777Z,18.23
2023-01-30T01:44:03.641Z,18.00
2023-01-30T01:46:35.627Z,18.75
2023-01-30T01:49:06.965Z,17.88
2023-01-30T01:51:38.143Z,18.17
2023-01-30T01:54:10.011Z,17.35
2023-01-30T01:56:44.296Z,18.88
2023-01-30T01:59:17.769Z,19.60
2023-01-30T02:01:45.652Z,18.30
2023-01-30T02:04:13.801Z,17.25
2023-01-30T02:06:43.689Z,16.92
2023-01-30T02:09:11.991Z,18.00
2023-01-30T02:11:48.057Z,16.95
2023-01-30T02:14:16.818Z,17.10
2023-01-30T02:16:47.451Z,18.38
2023-01-30T02:19:26.382Z,17.33
2023-01-30T02:22:32.912Z,16.90
2023-01-30T02:25:33.746Z,17.00
2023-01-30T02:28:32.806Z,16.95
2023-01-30T02:34:01.982Z,17.15
2023-01-30T02:36:39.858Z,19.05
2023-01-30T02:41:44.931Z,16.80
2023-01-30T02:44:18.702Z,17.48
2023-01-30T02:46:55.166Z,18.17
2023-01-30T02:49:29.191Z,17.58
2023-01-30T02:51:58.994Z,18.15
2023-01-30T02:54:26.844Z,18.35
2023-01-30T02:56:58.686Z,17.70
2023-01-30T02:59:32.999Z,17.33
2023-01-30T03:02:16.347Z,17.92
2023-01-30T03:05:16.697Z,16.80
2023-01-30T03:07:50.356Z,16.48
2023-01-30T03:10:30.536Z,18.42
2023-01-30T03:13:03.830Z,17.80
2023-01-30T03:15:36.444Z,16.98
2023-01-30T03:18:06.160Z,17.15
2023-01-30T03:20:38.064Z,17.08
2023-01-30T03:23:06.230Z,17.60
2023-01-30T03:25:36.769Z,16.25
2023-01-30T03:28:06.925Z,17.20
2023-01-30T03:30:34.837Z,14.75
2023-01-30T03:33:02.661Z,15.65
2023-01-30T03:35:31.895Z,16.00
2023-01-30T03:37:59.937Z,15.18
2023-01-30T03:40:28.219Z,16.20
2023-01-30T03:42:56.075Z,15.98
2023-01-30T03:45:23.929Z,14.02
2023-01-30T03:47:51.921Z,15.43
2023-01-30T03:50:19.848Z,15.40
2023-01-30T03:52:49.057Z,14.52
2023-01-30T03:55:17.273Z,12.95
2023-01-30T03:57:45.318Z,14.95
2023-01-30T04:00:14.006Z,14.35
2023-01-30T04:02:42.101Z,14.38
2023-01-30T04:05:10.398Z,14.43
2023-01-30T04:07:38.318Z,13.48
2023-01-30T04:10:08.995Z,15.00
2023-01-30T04:12:36.811Z,14.63
2023-01-30T04:15:05.063Z,12.95
2023-01-30T04:17:32.873Z,13.23
2023-01-30T04:20:00.719Z,14.27
2023-01-30T04:22:28.562Z,13.77
2023-01-30T04:24:56.403Z,12.48
2023-01-30T04:27:25.694Z,13.65
2023-01-30T04:29:53.539Z,13.40
2023-01-30T04:32:21.379Z,14.65
2023-01-30T04:34:49.230Z,13.27
2023-01-30T04:37:17.067Z,14.07
2023-01-30T04:39:44.923Z,13.43
2023-01-30T04:42:13.075Z,14.05
2023-01-30T04:44:42.207Z,12.32
2023-01-30T04:47:10.036Z,12.43
2023-01-30T04:49:37.882Z,13.18
2023-01-30T04:52:06.305Z,12.73
2023-01-30T04:54:34.156Z,12.27
2023-01-30T04:57:01.979Z,12.15
2023-01-30T04:59:30.892Z,13.25
2023-01-30T05:02:00.066Z,14.07
2023-01-30T05:04:28.069Z,12.00
2023-01-30T05:06:55.928Z,12.32
2023-01-30T05:09:23.755Z,12.20
2023-01-30T05:11:51.567Z,11.98
2023-01-30T05:14:19.380Z,12.55
2023-01-30T05:16:47.185Z,13.60
2023-01-30T05:19:16.375Z,12.45
2023-01-30T05:21:44.236Z,13.60
2023-01-30T05:24:12.054Z,12.82
2023-01-30T05:26:39.945Z,11.70
2023-01-30T05:29:07.805Z,13.15
2023-01-30T05:31:36.128Z,12.35
2023-01-30T05:34:04.029Z,12.55
2023-01-30T05:36:33.196Z,12.00
2023-01-30T05:39:00.999Z,13.20
2023-01-30T05:41:28.822Z,12.57
2023-01-30T05:43:56.671Z,11.73
2023-01-30T05:46:24.554Z,10.30
2023-01-30T05:48:52.402Z,13.93
2023-01-30T05:51:22.613Z,12.75
2023-01-30T05:53:52.177Z,12.15
2023-01-30T05:56:20.859Z,13.70
2023-01-30T05:58:52.136Z,11.82
2023-01-30T06:01:20.687Z,12.25
2023-01-30T06:03:48.644Z,13.20
2023-01-30T06:06:17.170Z,14.23
2023-01-30T06:08:45.433Z,12.68
2023-01-30T06:11:15.912Z,12.15
2023-01-30T06:13:44.274Z,12.98
2023-01-30T06:16:14.428Z,12.75
2023-01-30T06:18:42.465Z,12.85
2023-01-30T06:21:11.028Z,12.73
2023-01-30T06:23:39.004Z,11.38
2023-01-30T06:26:09.100Z,12.43
2023-01-30T06:28:38.929Z,13.15
2023-01-30T06:31:07.975Z,10.95
2023-01-30T06:33:36.337Z,13.55
2023-01-30T06:36:04.629Z,12.43
2023-01-30T06:38:32.612Z,12.82
2023-01-30T06:41:00.442Z,12.15
2023-01-30T06:43:28.316Z,12.25
2023-01-30T06:45:59.742Z,12.27
2023-01-30T06:48:27.758Z,11.70
2023-01-30T06:50:55.561Z,10.60
2023-01-30T06:53:25.320Z,11.95
2023-01-30T06:55:53.131Z,11.98
2023-01-30T06:58:20.970Z,12.20
2023-01-30T07:00:48.853Z,11.40
2023-01-30T07:03:19.214Z,11.50
2023-01-30T07:05:48.367Z,11.98
2023-01-30T07:08:17.240Z,11.95
2023-01-30T07:10:45.652Z,11.57
2023-01-30T07:13:13.523Z,12.20
2023-01-30T07:15:41.401Z,11.82
2023-01-30T07:18:09.308Z,12.07
2023-01-30T07:20:38.501Z,12.88
2023-01-30T07:23:06.371Z,12.02
2023-01-30T07:25:34.213Z,11.68
2023-01-30T07:28:03.263Z,11.85
2023-01-30T07:30:33.425Z,11.20
2023-01-30T07:33:01.503Z,10.85
2023-01-30T07:35:31.237Z,11.38
2023-01-30T07:38:00.735Z,11.23
2023-01-30T07:40:28.927Z,11.75
2023-01-30T07:42:58.802Z,11.15
2023-01-30T07:45:27.073Z,10.82
2023-01-30T07:47:55.190Z,10.48
2023-01-30T07:50:23.041Z,11.40
2023-01-30T07:52:50.864Z,10.40
2023-01-30T07:55:20.438Z,10.90
2023-01-30T07:57:48.454Z,11.35
2023-01-30T08:00:17.310Z,11.90
2023-01-30T08:02:45.349Z,12.48
2023-01-30T08:05:13.169Z,9.57
2023-01-30T08:07:41.217Z,9.90
2023-01-30T08:10:12.103Z,10.10
2023-01-30T08:12:42.651Z,10.57
2023-01-30T08:15:11.544Z,10.82
2023-01-30T08:17:39.378Z,11.15
2023-01-30T08:20:08.358Z,10.65
2023-01-30T08:22:36.249Z,10.63
2023-01-30T08:25:04.401Z,10.00
2023-01-30T08:27:32.250Z,11.43
2023-01-30T08:30:01.414Z,8.73
2023-01-30T08:32:29.232Z,9.45
2023-01-30T08:34:57.074Z,8.80
2023-01-30T08:37:24.966Z,8.50
2023-01-30T08:39:52.776Z,9.02
2023-01-30T08:42:20.666Z,8.98
2023-01-30T08:44:48.518Z,9.85
2023-01-30T08:47:17.667Z,10.00
2023-01-30T08:49:45.601Z,11.05
2023-01-30T08:52:13.467Z,9.93
2023-01-30T08:54:41.318Z,10.27
2023-01-30T08:57:09.494Z,9.88
2023-01-30T08:59:37.398Z,9.93
2023-01-30T09:02:05.291Z,9.93
2023-01-30T09:04:34.603Z,9.00
2023-01-30T09:07:02.470Z,9.23
2023-01-30T09:09:30.688Z,10.13
2023-01-30T09:11:58.505Z,8.98
2023-01-30T09:14:26.355Z,11.02
2023-01-30T09:16:55.761Z,9.25
2023-01-30T09:19:23.828Z,9.40
2023-01-30T09:21:54.249Z,8.98
2023-01-30T09:24:26.261Z,9.32
2023-01-30T09:26:54.912Z,10.02
2023-01-30T09:29:22.768Z,8.50
2023-01-30T09:31:51.133Z,8.07
2023-01-30T09:34:19.010Z,9.13
2023-01-30T09:36:46.831Z,7.97
2023-01-30T09:39:16.028Z,8.68
2023-01-30T09:41:56.911Z,7.80
2023-01-30T09:44:47.239Z,7.97
2023-01-30T09:47:19.108Z,12.35
2023-01-30T09:49:55.495Z,9.15
2023-01-30T09:52:32.023Z,8.68
2023-01-30T09:55:10.905Z,7.65
2023-01-30T09:57:38.840Z,8.68
2023-01-30T10:00:13.307Z,8.75
2023-01-30T10:02:51.147Z,8.65
2023-01-30T10:05:19.360Z,7.28
2023-01-30T10:08:01.126Z,8.15
2023-01-30T10:10:42.330Z,5.45
2023-01-30T10:13:42.941Z,4.43
2023-01-30T10:16:19.363Z,4.07
2023-01-30T10:18:58.893Z,4.68
2023-01-30T10:21:38.653Z,4.03
2023-01-30T10:24:19.002Z,3.55
2023-01-30T10:26:48.755Z,3.88
2023-01-30T10:29:21.453Z,3.85
2023-01-30T10:31:55.029Z,4.30
2023-01-30T10:34:26.485Z,3.22
2023-01-30T10:36:59.914Z,4.18
2023-01-30T10:39:36.910Z,3.75
2023-01-30T10:42:12.332Z,3.70
2023-01-30T10:44:42.660Z,3.35
2023-01-30T10:47:46.307Z,3.28
2023-01-30T10:50:18.120Z,3.58
2023-01-30T10:52:53.825Z,3.70
2023-01-30T10:55:37.163Z,3.60
2023-01-30T10:58:16.768Z,4.47
2023-01-30T11:00:50.580Z,4.68
2023-01-30T11:03:29.574Z,5.22
2023-01-30T11:06:01.460Z,6.30
2023-01-30T11:08:31.304Z,4.88
2023-01-30T11:10:59.605Z,4.78
2023-01-30T11:13:31.895Z,5.20
2023-01-30T11:16:04.839Z,5.03
2023-01-30T11:19:18.128Z,5.35
2023-01-30T11:21:34.935Z,6.35
2023-01-30T11:24:14.021Z,5.97
2023-01-30T11:26:47.803Z,5.65
2023-01-30T11:29:26.739Z,6.03
2023-01-30T11:31:55.454Z,6.43
2023-01-30T11:34:25.102Z,4.75
2023-01-30T11:36:53.290Z,6.43
2023-01-30T11:39:24.072Z,4.85
2023-01-30T11:42:01.927Z,4.68
2023-01-30T11:44:33.389Z,5.78
2023-01-30T11:47:09.949Z,4.38
2023-01-30T11:49:51.920Z,5.75
2023-01-30T11:52:36.668Z,5.05
2023-01-30T11:55:11.053Z,4.43
2023-01-30T11:57:44.227Z,4.72
2023-01-30T12:00:20.403Z,4.85
2023-01-30T12:02:50.178Z,4.30
2023-01-30T12:05:27.177Z,4.32
2023-01-30T12:08:11.898Z,5.38
2023-01-30T12:10:43.272Z,5.28
2023-01-30T12:13:18.896Z,4.72
2023-01-30T12:15:53.153Z,5.50
2023-01-30T12:18:27.032Z,5.15
2023-01-30T12:21:00.096Z,4.65
2023-01-30T12:23:39.461Z,5.35
2023-01-30T12:26:13.952Z,5.68
2023-01-30T12:28:47.270Z,5.55
2023-01-30T12:31:22.522Z,5.43
2023-01-30T12:33:50.513Z,6.22
2023-01-30T12:36:31.172Z,6.65
2023-01-30T12:39:07.324Z,5.80
2023-01-30T12:41:49.260Z,5.55
2023-01-30T12:44:35.813Z,5.72
2023-01-30T12:47:23.016Z,6.85
2023-01-30T12:50:01.536Z,5.55
2023-01-30T12:52:48.301Z,6.18
2023-01-30T12:55:31.071Z,5.43
2023-01-30T12:58:04.009Z,6.47
2023-01-30T13:00:44.990Z,5.57
2023-01-30T13:03:31.555Z,5.72
2023-01-30T13:06:09.074Z,5.68
2023-01-30T13:08:48.824Z,7.10
2023-01-30T13:11:32.045Z,6.78
2023-01-30T13:14:07.974Z,6.65
2023-01-30T13:16:46.389Z,6.65
2023-01-30T13:19:23.054Z,6.90
2023-01-30T13:22:00.593Z,7.22
2023-01-30T13:24:42.700Z,6.13
2023-01-30T13:27:16.199Z,6.22
2023-01-30T13:29:45.331Z,7.10
2023-01-30T13:32:17.662Z,6.95
2023-01-30T13:34:49.407Z,5.80
2023-01-30T13:37:18.744Z,6.32
2023-01-30T13:39:51.038Z,6.65
2023-01-30T13:42:31.488Z,7.20
2023-01-30T13:45:00.682Z,7.32
2023-01-30T13:47:40.197Z,5.82
2023-01-30T13:50:29.456Z,5.93
2023-01-30T13:53:04.212Z,6.63
2023-01-30T13:55:39.761Z,6.75
2023-01-30T13:58:17.723Z,6.40
2023-01-30T14:03:32.772Z,6.60
2023-01-30T14:06:09.233Z,9.00
2023-01-30T14:08:41.069Z,7.45
2023-01-30T14:11:34.580Z,7.03
2023-01-30T14:14:06.562Z,7.15
2023-01-30T14:16:45.642Z,7.13
2023-01-30T14:19:35.673Z,7.95
2023-01-30T14:22:19.068Z,6.68
2023-01-30T14:25:11.041Z,7.05
2023-01-30T14:27:40.330Z,7.47
2023-01-30T14:30:38.449Z,6.90
2023-01-30T14:33:36.143Z,8.00
2023-01-30T14:36:36.495Z,7.78
2023-01-30T14:39:39.672Z,8.27
2023-01-30T14:42:24.388Z,7.65
2023-01-30T14:45:02.454Z,8.02
2023-01-30T14:47:34.006Z,8.00
2023-01-30T14:50:20.405Z,8.48
2023-01-30T14:52:50.180Z,7.97
2023-01-30T14:55:21.169Z,7.82
2023-01-30T14:57:54.719Z,7.75
2023-01-30T15:00:29.093Z,7.15
2023-01-30T15:02:59.733Z,6.55
2023-01-30T15:05:32.584Z,6.60
2023-01-30T15:08:07.305Z,6.85
2023-01-30T15:10:53.543Z,6.35
2023-01-30T15:13:41.048Z,6.50
2023-01-30T15:16:35.621Z,7.97
2023-01-30T15:19:17.035Z,5.28
2023-01-30T15:21:56.910Z,5.82
2023-01-30T15:24:53.182Z,5.50
2023-01-30T15:27:29.074Z,4.90
2023-01-30T15:30:17.284Z,4.55
2023-01-30T15:32:47.015Z,5.72
2023-01-30T15:35:29.462Z,5.70
2023-01-30T15:37:58.084Z,5.55
2023-01-30T15:40:27.884Z,5.57
2023-01-30T15:43:14.670Z,5.00
2023-01-30T15:45:58.429Z,5.15
2023-01-30T15:48:41.469Z,5.22
2023-01-30T15:51:13.452Z,4.72
2023-01-30T15:53:44.170Z,4.80
2023-01-30T15:56:18.509Z,5.68
2023-01-30T15:58:46.970Z,5.63
2023-01-30T16:01:21.578Z,4.78
2023-01-30T16:03:53.222Z,6.03
2023-01-30T16:06:24.330Z,6.22
2023-01-30T16:09:01.434Z,5.50
2023-01-30T16:11:40.831Z,5.70
2023-01-30T16:14:13.741Z,5.45
2023-01-30T16:16:45.595Z,5.07
2023-01-30T16:19:26.360Z,6.13
2023-01-30T16:21:57.807Z,6.20
2023-01-30T16:24:28.424Z,6.85
2023-01-30T16:27:01.270Z,6.53
2023-01-30T16:29:32.274Z,7.45
2023-01-30T16:32:00.817Z,5.97
2023-01-30T16:34:33.102Z,6.72
2023-01-30T16:37:05.173Z,5.90
2023-01-30T16:39:35.453Z,7.22
2023-01-30T16:42:05.136Z,6.07
2023-01-30T16:44:33.566Z,6.35
2023-01-30T16:47:03.710Z,6.55
2023-01-30T16:49:41.731Z,5.65
2023-01-30T16:54:48.187Z,5.78
2023-01-30T16:57:35.995Z,6.00
2023-01-30T17:00:09.807Z,6.82
2023-01-30T17:02:40.683Z,6.25
2023-01-30T17:05:19.421Z,7.05
2023-01-30T17:07:48.035Z,6.63
2023-01-30T17:10:54.923Z,7.00
2023-01-30T17:13:33.768Z,6.30
2023-01-30T17:16:33.555Z,7.07
2023-01-30T17:19:01.928Z,9.63
2023-01-30T17:21:34.194Z,7.45
2023-01-30T17:24:04.300Z,7.38
2023-01-30T17:26:33.285Z,7.20
2023-01-30T17:29:01.355Z,7.25
2023-01-30T17:31:29.251Z,8.48
2023-01-30T17:33:57.133Z,7.00
2023-01-30T17:36:29.021Z,10.68
2023-01-30T17:38:59.414Z,8.73
2023-01-30T17:41:30.096Z,8.15
2023-01-30T17:43:58.086Z,7.82
2023-01-30T17:46:34.429Z,8.55
2023-01-30T17:49:02.275Z,7.35
2023-01-30T17:51:30.116Z,6.35
2023-01-30T17:53:59.334Z,7.20
2023-01-30T17:56:34.503Z,7.65
2023-01-30T17:59:04.029Z,7.07
2023-01-30T18:01:31.993Z,7.15
2023-01-30T18:03:59.888Z,6.07
2023-01-30T18:06:29.773Z,6.70
2023-01-30T18:08:59.125Z,7.05
2023-01-30T18:11:26.998Z,6.22
2023-01-30T18:13:54.862Z,6.28
2023-01-30T18:16:26.741Z,6.50
2023-01-30T18:18:54.612Z,6.72
2023-01-30T18:21:22.995Z,6.93
2023-01-30T18:23:51.299Z,7.07
2023-01-30T18:26:20.675Z,10.10
2023-01-30T18:28:49.033Z,7.78
2023-01-30T18:31:17.777Z,6.95
2023-01-30T18:33:45.878Z,6.57
2023-01-30T18:36:16.119Z,6.68
2023-01-30T18:38:44.517Z,6.47
2023-01-30T18:41:14.172Z,7.20
2023-01-30T18:43:44.290Z,8.05
2023-01-30T18:46:14.475Z,7.28
2023-01-30T18:48:43.022Z,6.65
2023-01-30T18:51:13.315Z,7.80
2023-01-30T18:53:42.462Z,7.13
2023-01-30T18:56:11.672Z,8.35
2023-01-30T18:58:39.904Z,8.38
2023-01-30T19:01:17.573Z,7.05
2023-01-30T19:03:45.670Z,7.38
2023-01-30T19:06:15.505Z,8.13
2023-01-30T19:08:43.329Z,7.43
2023-01-30T19:11:31.312Z,7.15
2023-01-30T19:13:59.834Z,7.40
2023-01-30T19:16:30.201Z,7.30
2023-01-30T19:18:58.113Z,7.03
2023-01-30T19:21:26.331Z,7.95
2023-01-30T19:23:56.305Z,7.18
2023-01-30T19:26:25.254Z,7.28
2023-01-30T19:28:53.162Z,8.25
2023-01-30T19:31:22.621Z,7.47
2023-01-30T19:33:58.069Z,7.13
2023-01-30T19:36:27.828Z,7.07
2023-01-30T19:38:57.303Z,7.18
2023-01-30T19:41:27.417Z,6.72
2023-01-30T19:43:56.769Z,7.70
2023-01-30T19:46:25.288Z,6.70
2023-01-30T19:48:53.450Z,6.82
2023-01-30T19:51:24.739Z,7.20
2023-01-30T19:53:54.029Z,8.82
2023-01-30T19:56:22.524Z,7.22
2023-01-30T19:58:51.596Z,7.70
2023-01-30T20:01:21.384Z,6.30
2023-01-30T20:03:49.911Z,6.80
2023-01-30T20:06:19.950Z,7.07
2023-01-30T20:08:53.781Z,7.95
2023-01-30T20:11:21.860Z,6.43
2023-01-30T20:13:50.913Z,6.22
2023-01-30T20:16:21.267Z,7.15
2023-01-30T20:18:54.290Z,6.85
2023-01-30T20:21:23.690Z,8.63
2023-01-30T20:23:53.340Z,6.25
2023-01-30T20:26:23.214Z,7.15
2023-01-30T20:28:51.853Z,7.03
2023-01-30T20:31:21.723Z,6.80
2023-01-30T20:33:50.315Z,6.70
2023-01-30T20:36:19.643Z,6.90
2023-01-30T20:38:50.011Z,7.00
2023-01-30T20:41:21.502Z,7.63
2023-01-30T20:43:51.867Z,8.27
2023-01-30T20:46:21.848Z,6.28
2023-01-30T20:48:52.182Z,6.90
2023-01-30T20:51:23.108Z,7.35
2023-01-30T20:53:53.331Z,9.50
2023-01-30T20:56:24.110Z,6.47
2023-01-30T20:58:52.054Z,7.45
2023-01-30T21:01:22.417Z,9.23
2023-01-30T21:03:52.278Z,7.97
2023-01-30T21:06:41.239Z,6.32
2023-01-30T21:09:12.135Z,7.75
2023-01-30T21:11:41.564Z,6.68
2023-01-30T21:14:09.663Z,7.50
2023-01-30T21:16:38.410Z,7.63
2023-01-30T21:19:08.735Z,7.53
2023-01-30T21:21:39.101Z,7.63
2023-01-30T21:24:09.380Z,7.38
2023-01-30T21:26:39.403Z,7.45
2023-01-30T21:29:09.439Z,7.75
2023-01-30T21:31:39.246Z,7.18
2023-01-30T21:34:08.043Z,8.23
2023-01-30T21:36:36.745Z,8.00
2023-01-30T21:39:22.486Z,7.82
2023-01-30T21:42:21.250Z,9.10
2023-01-30T21:44:50.929Z,7.78
2023-01-30T21:47:18.816Z,7.88
2023-01-30T21:49:46.701Z,7.70
2023-01-30T21:52:14.564Z,8.15
2023-01-30T21:54:42.547Z,8.85
2023-01-30T21:57:10.375Z,7.43
2023-01-30T21:59:38.937Z,7.75
2023-01-30T22:02:08.220Z,7.85
2023-01-30T22:04:36.688Z,8.13
2023-01-30T22:07:06.790Z,8.73
2023-01-30T22:09:35.587Z,9.13
2023-01-30T22:12:03.562Z,8.07
2023-01-30T22:14:33.203Z,8.98
2023-01-30T22:17:01.277Z,8.50
2023-01-30T22:19:35.441Z,8.25
2023-01-30T22:22:04.152Z,8.43
2023-01-30T22:24:32.385Z,8.63
2023-01-30T22:27:00.275Z,8.73
2023-01-30T22:29:29.085Z,9.20
2023-01-30T22:31:57.100Z,8.40
2023-01-30T22:34:25.017Z,8.93
2023-01-30T22:36:54.394Z,9.02
2023-01-30T22:39:22.328Z,9.18
2023-01-30T22:41:50.206Z,7.80
2023-01-30T22:44:18.051Z,7.82
2023-01-30T22:46:45.935Z,8.75
2023-01-30T22:49:13.856Z,7.78
2023-01-30T22:51:43.381Z,8.30
2023-01-30T22:54:16.424Z,8.05
2023-01-30T22:56:46.159Z,8.20
2023-01-30T22:59:14.803Z,8.50
2023-01-30T23:01:45.676Z,9.18
2023-01-30T23:04:15.452Z,7.75
2023-01-30T23:06:43.477Z,8.35
2023-01-30T23:09:17.893Z,9.20
2023-01-30T23:12:08.860Z,7.90
2023-01-30T23:14:36.916Z,8.60
2023-01-30T23:17:26.263Z,8.30
2023-01-30T23:19:53.567Z,8.60
2023-01-30T23:22:21.491Z,8.90
2023-01-30T23:24:51.501Z,8.82
2023-01-30T23:27:19.569Z,8.20
2023-01-30T23:29:47.643Z,8.50
2023-01-30T23:32:18.974Z,7.70
2023-01-30T23:34:47.113Z,7.60
2023-01-30T23:37:15.044Z,8.18
2023-01-30T23:39:43.001Z,8.20
2023-01-30T23:42:12.203Z,8.27
2023-01-30T23:44:40.233Z,7.97
2023-01-30T23:47:08.155Z,9.18
2023-01-30T23:49:36.357Z,7.75
2023-01-30T23:52:04.249Z,7.80
2023-01-30T23:54:32.078Z,8.02
2023-01-30T23:56:59.917Z,8.60
2023-01-30T23:59:29.214Z,8.70
